Celine — HBEF — position and weather

sailwx.info

Track history (hours):
 
Tides and Currents Weather Stations Pressure Air Temp Water Temp Dewpoint Dewpoint Depression Visibility Wind Speed Wind Dir Waves Ship Positions

Celine

Last reported at 2016-Jul-28 15:31 UTC. Time now 2016-Jul-29 06:01 UTC.
Position N 31°02' W 011°55'.

Length 129 m; draft 4.6 m.

Type: Cargo ship. MMSI: 269057000.

Date/timePositionNaut miles runAvg speedWind from/ knotsBaromVisibWave heightAir tempDewpointWater temp
2016-Jul-28 15:31N 31°02' W 011°55'8 8.1
2016-Jul-28 14:31N 30°54' W 011°53'11 8.2
2016-Jul-28 13:13N 30°44' W 011°51'6 8.1
2016-Jul-28 12:31N 30°38' W 011°50'23 7.8
2016-Jul-28 09:32N 30°24' W 011°29'7 7.1
2016-Jul-28 08:31N 30°17' W 011°31'8 8.1
2016-Jul-28 07:29N 30°11' W 011°38'7 8.0
2016-Jul-28 06:32N 30°06' W 011°45'8 7.9
2016-Jul-28 05:33N 30°02' W 011°52'7 7.5
2016-Jul-28 04:33N 29°57' W 011°59'10 7.2
2016-Jul-28 03:09N 29°51' W 012°08'4 7.4
2016-Jul-28 02:33N 29°48' W 012°12'6 6.5
2016-Jul-28 01:33N 29°42' W 012°16'7 6.6
2016-Jul-28 00:33N 29°38' W 012°21'6 6.5
2016-Jul-27 23:33N 29°32' W 012°24'7 6.8
2016-Jul-27 22:33N 29°27' W 012°29'6 5.8
2016-Jul-27 21:33N 29°22' W 012°33'7 7.1
2016-Jul-27 20:33N 29°16' W 012°38'7 7.5
2016-Jul-27 19:33N 29°10' W 012°42'8 8.4
2016-Jul-27 18:34N 29°03' W 012°48'8 8.4
2016-Jul-27 17:33N 28°57' W 012°54'9 8.6
2016-Jul-27 16:34N 28°50' W 013°00'9 8.8
2016-Jul-27 15:33N 28°43' W 013°06'9 9.3
2016-Jul-27 14:33N 28°35' W 013°13'9 9.5
2016-Jul-27 13:33N 28°27' W 013°19'9 9.3
2016-Jul-27 12:33N 28°20' W 013°26'10 9.6
2016-Jul-27 11:33N 28°12' W 013°32'9 9.2
2016-Jul-27 10:33N 28°05' W 013°38'9 9.5
2016-Jul-27 09:33N 27°58' W 013°45'10 9.5
2016-Jul-27 08:33N 27°50' W 013°52'10 9.9
2016-Jul-27 07:33N 27°42' W 013°58'1110.6
2016-Jul-27 06:33N 27°33' W 014°04'1110.6
2016-Jul-27 05:33N 27°24' W 014°10'1110.6
2016-Jul-27 04:33N 27°14' W 014°16'1110.8
2016-Jul-27 03:33N 27°05' W 014°22'1110.6
2016-Jul-27 02:33N 26°56' W 014°28'1010.3
2016-Jul-27 01:33N 26°47' W 014°33'1010.1
2016-Jul-27 00:33N 26°38' W 014°38'1010.1
2016-Jul-26 23:33N 26°29' W 014°44'1010.1
2016-Jul-26 22:33N 26°20' W 014°49'1010.1
2016-Jul-26 21:33N 26°11' W 014°55'1010.2
2016-Jul-26 20:33N 26°03' W 015°01'177 9.7
2016-Jul-26 02:16N 23°28' W 016°35'810.9
2016-Jul-26 01:33N 23°21' W 016°39'51610.7
2016-Jul-24 01:21N 14°48' W 017°39'911.8
2016-Jul-24 00:33N 14°41' W 017°33'1010.3
2016-Jul-23 23:33N 14°37' W 017°23'5 5.0
2016-Jul-23 22:30N 14°42' W 017°26'0 0.0
2016-Jul-23 21:27N 14°42' W 017°26'0 0.0
2016-Jul-23 20:27N 14°42' W 017°26'0 0.0
2016-Jul-23 19:30N 14°42' W 017°26'0 0.0
2016-Jul-23 18:30N 14°42' W 017°26'0 0.0
2016-Jul-23 17:24N 14°42' W 017°26'0 0.0
2016-Jul-23 16:30N 14°42' W 017°26'0 0.0
2016-Jul-23 15:20N 14°42' W 017°26'0 0.0
2016-Jul-23 14:33N 14°42' W 017°26'0 0.0
2016-Jul-23 12:33N 14°42' W 017°26'0 0.0
2016-Jul-23 11:33N 14°42' W 017°26'0 0.0
2016-Jul-23 10:33N 14°42' W 017°26'0 0.0
2016-Jul-23 09:30N 14°42' W 017°26'0 0.0
2016-Jul-23 08:33N 14°42' W 017°26'0 0.0
2016-Jul-23 07:27N 14°42' W 017°26'0 0.0
2016-Jul-23 06:29N 14°42' W 017°26'0 0.0
2016-Jul-23 04:32N 14°42' W 017°26'0 0.0
2016-Jul-23 03:33N 14°42' W 017°26'0 0.0
2016-Jul-23 02:33N 14°42' W 017°26'0 0.0
2016-Jul-23 01:33N 14°42' W 017°26'0 0.0
2016-Jul-23 00:33N 14°42' W 017°26'  
Track history (hours):
 
Tides and Currents Weather Stations Pressure Air Temp Water Temp Dewpoint Dewpoint Depression Visibility Wind Speed Wind Dir Waves Ship Positions

Celine

Last reported at 2016-Jul-28 15:31 UTC. Time now 2016-Jul-29 06:01 UTC.
Position N 31°02' W 011°55'.

Length 129 m; draft 4.6 m.

Type: Cargo ship. MMSI: 269057000.

Date/timePositionNaut miles runAvg speedWind from/ knotsBaromVisibWave heightAir tempDewpointWater temp
2016-Jul-28 15:31N 31°02' W 011°55'8 8.1
2016-Jul-28 14:31N 30°54' W 011°53'11 8.2
2016-Jul-28 13:13N 30°44' W 011°51'6 8.1
2016-Jul-28 12:31N 30°38' W 011°50'23 7.8
2016-Jul-28 09:32N 30°24' W 011°29'7 7.1
2016-Jul-28 08:31N 30°17' W 011°31'8 8.1
2016-Jul-28 07:29N 30°11' W 011°38'7 8.0
2016-Jul-28 06:32N 30°06' W 011°45'8 7.9
2016-Jul-28 05:33N 30°02' W 011°52'7 7.5
2016-Jul-28 04:33N 29°57' W 011°59'10 7.2
2016-Jul-28 03:09N 29°51' W 012°08'4 7.4
2016-Jul-28 02:33N 29°48' W 012°12'6 6.5
2016-Jul-28 01:33N 29°42' W 012°16'7 6.6
2016-Jul-28 00:33N 29°38' W 012°21'6 6.5
2016-Jul-27 23:33N 29°32' W 012°24'7 6.8
2016-Jul-27 22:33N 29°27' W 012°29'6 5.8
2016-Jul-27 21:33N 29°22' W 012°33'7 7.1
2016-Jul-27 20:33N 29°16' W 012°38'7 7.5
2016-Jul-27 19:33N 29°10' W 012°42'8 8.4
2016-Jul-27 18:34N 29°03' W 012°48'8 8.4
2016-Jul-27 17:33N 28°57' W 012°54'9 8.6
2016-Jul-27 16:34N 28°50' W 013°00'9 8.8
2016-Jul-27 15:33N 28°43' W 013°06'9 9.3
2016-Jul-27 14:33N 28°35' W 013°13'9 9.5
2016-Jul-27 13:33N 28°27' W 013°19'9 9.3
2016-Jul-27 12:33N 28°20' W 013°26'10 9.6
2016-Jul-27 11:33N 28°12' W 013°32'9 9.2
2016-Jul-27 10:33N 28°05' W 013°38'9 9.5
2016-Jul-27 09:33N 27°58' W 013°45'10 9.5
2016-Jul-27 08:33N 27°50' W 013°52'10 9.9
2016-Jul-27 07:33N 27°42' W 013°58'1110.6
2016-Jul-27 06:33N 27°33' W 014°04'1110.6
2016-Jul-27 05:33N 27°24' W 014°10'1110.6
2016-Jul-27 04:33N 27°14' W 014°16'1110.8
2016-Jul-27 03:33N 27°05' W 014°22'1110.6
2016-Jul-27 02:33N 26°56' W 014°28'1010.3
2016-Jul-27 01:33N 26°47' W 014°33'1010.1
2016-Jul-27 00:33N 26°38' W 014°38'1010.1
2016-Jul-26 23:33N 26°29' W 014°44'1010.1
2016-Jul-26 22:33N 26°20' W 014°49'1010.1
2016-Jul-26 21:33N 26°11' W 014°55'1010.2
2016-Jul-26 20:33N 26°03' W 015°01'177 9.7
2016-Jul-26 02:16N 23°28' W 016°35'810.9
2016-Jul-26 01:33N 23°21' W 016°39'51610.7
2016-Jul-24 01:21N 14°48' W 017°39'911.8
2016-Jul-24 00:33N 14°41' W 017°33'1010.3
2016-Jul-23 23:33N 14°37' W 017°23'5 5.0
2016-Jul-23 22:30N 14°42' W 017°26'0 0.0
2016-Jul-23 21:27N 14°42' W 017°26'0 0.0
2016-Jul-23 20:27N 14°42' W 017°26'0 0.0
2016-Jul-23 19:30N 14°42' W 017°26'0 0.0
2016-Jul-23 18:30N 14°42' W 017°26'0 0.0
2016-Jul-23 17:24N 14°42' W 017°26'0 0.0
2016-Jul-23 16:30N 14°42' W 017°26'0 0.0
2016-Jul-23 15:20N 14°42' W 017°26'0 0.0
2016-Jul-23 14:33N 14°42' W 017°26'0 0.0
2016-Jul-23 12:33N 14°42' W 017°26'0 0.0
2016-Jul-23 11:33N 14°42' W 017°26'0 0.0
2016-Jul-23 10:33N 14°42' W 017°26'0 0.0
2016-Jul-23 09:30N 14°42' W 017°26'0 0.0
2016-Jul-23 08:33N 14°42' W 017°26'0 0.0
2016-Jul-23 07:27N 14°42' W 017°26'0 0.0
2016-Jul-23 06:29N 14°42' W 017°26'0 0.0
2016-Jul-23 04:32N 14°42' W 017°26'0 0.0
2016-Jul-23 03:33N 14°42' W 017°26'0 0.0
2016-Jul-23 02:33N 14°42' W 017°26'0 0.0
2016-Jul-23 01:33N 14°42' W 017°26'0 0.0
2016-Jul-23 00:33N 14°42' W 017°26'  

Dump ship's entire track history